createdAt,value
2022-12-10T00:00:06.120Z,0.8
2022-12-10T00:01:05.630Z,0
2022-12-10T00:02:05.744Z,0.8
2022-12-10T00:03:06.418Z,0.8
2022-12-10T00:04:05.829Z,0
2022-12-10T00:05:06.326Z,0
2022-12-10T00:06:06.012Z,0
2022-12-10T00:07:05.956Z,0.8
2022-12-10T00:08:06.554Z,0.8
2022-12-10T00:09:05.642Z,0.8
2022-12-10T00:10:13.074Z,0.8
2022-12-10T00:11:06.006Z,0.8
2022-12-10T00:12:05.435Z,0.8
2022-12-10T00:13:06.441Z,0.8
2022-12-10T00:14:05.922Z,0.8
2022-12-10T00:15:06.434Z,0
2022-12-10T00:16:06.103Z,0.8
2022-12-10T00:17:13.022Z,0.8
2022-12-10T00:18:06.020Z,0.8
2022-12-10T00:19:05.924Z,0.8
2022-12-10T00:20:04.783Z,0.8
2022-12-10T00:21:05.823Z,0.8
2022-12-10T00:22:06.010Z,0.8
2022-12-10T00:23:04.624Z,0.8
2022-12-10T00:24:05.977Z,0.8
2022-12-10T00:25:06.381Z,0.8
2022-12-10T00:26:06.275Z,0.8
2022-12-10T00:27:06.572Z,0.8
2022-12-10T00:28:05.993Z,0
2022-12-10T00:29:06.311Z,0.9
2022-12-10T00:30:05.974Z,0.8
2022-12-10T00:31:05.851Z,0.8
2022-12-10T00:32:06.210Z,0
2022-12-10T00:33:06.376Z,0
2022-12-10T00:34:05.885Z,0.8
2022-12-10T00:35:06.302Z,0.8
2022-12-10T00:36:05.830Z,0.8
2022-12-10T00:37:05.640Z,0.8
2022-12-10T00:38:06.054Z,0.8
2022-12-10T00:39:06.490Z,0.8
2022-12-10T00:40:06.383Z,0
2022-12-10T00:41:05.493Z,0.8
2022-12-10T00:42:06.035Z,0.8
2022-12-10T00:43:06.452Z,0.8
2022-12-10T00:44:05.896Z,0.8
2022-12-10T00:45:05.564Z,0.8
2022-12-10T00:46:05.535Z,0.8
2022-12-10T00:47:06.208Z,0.9
2022-12-10T00:48:05.705Z,0.8
2022-12-10T00:49:05.406Z,0.9
2022-12-10T00:50:05.812Z,0.8
2022-12-10T00:51:06.187Z,0
2022-12-10T00:52:05.516Z,0.8
2022-12-10T00:53:05.381Z,0.8
2022-12-10T00:54:06.546Z,0
2022-12-10T00:55:05.775Z,0.8
2022-12-10T00:56:06.317Z,0.8
2022-12-10T00:57:05.713Z,0.8
2022-12-10T00:58:06.390Z,0.8
2022-12-10T00:59:05.894Z,0.8
2022-12-10T01:00:05.979Z,0.8
2022-12-10T01:01:06.090Z,0.8
2022-12-10T01:02:05.755Z,0
2022-12-10T01:03:06.147Z,0
2022-12-10T01:04:06.089Z,0
2022-12-10T01:05:05.895Z,0
2022-12-10T01:06:05.709Z,0.8
2022-12-10T01:07:13.392Z,0.8
2022-12-10T01:08:06.570Z,0.8
2022-12-10T01:09:05.958Z,0.8
2022-12-10T01:10:06.230Z,0.8
2022-12-10T01:11:05.618Z,0.8
2022-12-10T01:12:06.169Z,0.8
2022-12-10T01:13:05.563Z,0.8
2022-12-10T01:14:06.142Z,0.8
2022-12-10T01:15:05.720Z,0
2022-12-10T01:16:05.679Z,0.8
2022-12-10T01:17:06.063Z,0.8
2022-12-10T01:18:06.337Z,0.8
2022-12-10T01:19:05.745Z,0.8
2022-12-10T01:20:06.525Z,0.8
2022-12-10T01:21:05.716Z,0.8
2022-12-10T01:22:06.149Z,0.8
2022-12-10T01:23:05.055Z,0.8
2022-12-10T01:24:05.773Z,0.8
2022-12-10T01:25:05.689Z,0.8
2022-12-10T01:26:05.727Z,0
2022-12-10T01:27:06.238Z,0.8
2022-12-10T01:28:06.247Z,0.8
2022-12-10T01:29:05.626Z,0
2022-12-10T01:30:06.788Z,0.8
2022-12-10T01:31:06.110Z,0.8
2022-12-10T01:32:06.255Z,0.8
2022-12-10T01:33:05.638Z,0.8
2022-12-10T01:34:05.698Z,0.8
2022-12-10T01:35:06.188Z,0.8
2022-12-10T01:36:06.323Z,0.8
2022-12-10T01:37:05.697Z,0.8
2022-12-10T01:38:05.742Z,0.8
2022-12-10T01:39:06.432Z,0.8
2022-12-10T01:40:05.926Z,0.8
2022-12-10T01:41:06.235Z,0.8
2022-12-10T01:42:06.074Z,0.8
2022-12-10T01:43:05.600Z,0.8
2022-12-10T01:44:06.044Z,0.8
2022-12-10T01:45:05.580Z,0.8
2022-12-10T01:46:05.912Z,0.8
2022-12-10T01:47:06.191Z,0.8
2022-12-10T01:48:11.931Z,0.8
2022-12-10T01:49:06.100Z,0
2022-12-10T01:50:06.713Z,0.8
2022-12-10T01:51:06.036Z,0.8
2022-12-10T01:52:06.399Z,0.8
2022-12-10T01:53:05.956Z,0.8
2022-12-10T01:54:06.351Z,0.8
2022-12-10T01:55:05.810Z,0.8
2022-12-10T01:56:06.094Z,0.8
2022-12-10T01:57:05.441Z,0
2022-12-10T01:58:06.571Z,0.8
2022-12-10T01:59:04.902Z,0.8
2022-12-10T02:00:04.602Z,0.8
2022-12-10T02:01:05.233Z,0
2022-12-10T02:02:06.134Z,0.8
2022-12-10T02:03:06.342Z,0.8
2022-12-10T02:04:06.442Z,0.8
2022-12-10T02:05:05.788Z,0.8
2022-12-10T02:06:05.684Z,0.8
2022-12-10T02:07:04.396Z,0.8
2022-12-10T02:08:06.429Z,0.8
2022-12-10T02:09:06.470Z,0.8
2022-12-10T02:10:06.629Z,0.7
2022-12-10T02:11:05.765Z,0.8
2022-12-10T02:12:06.146Z,0.7
2022-12-10T02:13:06.068Z,0.7
2022-12-10T02:14:06.432Z,0.7
2022-12-10T02:15:06.069Z,0.7
2022-12-10T02:16:06.430Z,0.7
2022-12-10T02:17:05.686Z,0.7
2022-12-10T02:18:06.249Z,0
2022-12-10T02:19:05.822Z,0
2022-12-10T02:20:06.687Z,0
2022-12-10T02:21:05.802Z,0
2022-12-10T02:22:05.682Z,0
2022-12-10T02:23:06.058Z,0
2022-12-10T02:24:05.651Z,0.8
2022-12-10T02:25:06.303Z,0.8
2022-12-10T02:26:05.840Z,0.8
2022-12-10T02:27:06.230Z,0.8
2022-12-10T02:28:05.682Z,0.7
2022-12-10T02:29:05.291Z,0.8
2022-12-10T02:30:05.821Z,0.8
2022-12-10T02:31:05.556Z,0.8
2022-12-10T02:32:06.270Z,0.8
2022-12-10T02:33:06.473Z,0.8
2022-12-10T02:34:06.328Z,0.8
2022-12-10T02:35:11.851Z,0.8
2022-12-10T02:36:05.584Z,0.8
2022-12-10T02:37:06.126Z,0.8
2022-12-10T02:38:06.252Z,0
2022-12-10T02:39:05.596Z,0.8
2022-12-10T02:40:06.533Z,0.8
2022-12-10T02:41:05.061Z,0.8
2022-12-10T02:42:06.034Z,0.8
2022-12-10T02:43:05.522Z,0.8
2022-12-10T02:44:05.934Z,0.8
2022-12-10T02:45:06.303Z,0.8
2022-12-10T02:46:06.474Z,0.8
2022-12-10T02:47:06.037Z,0.8
2022-12-10T02:48:06.427Z,0.8
2022-12-10T02:49:05.829Z,0.8
2022-12-10T02:50:06.474Z,0.8
2022-12-10T02:51:05.495Z,0.8
2022-12-10T02:52:06.115Z,0.8
2022-12-10T02:53:05.518Z,0.8
2022-12-10T02:54:05.949Z,0.8
2022-12-10T02:55:06.470Z,0.8
2022-12-10T02:56:05.785Z,0.8
2022-12-10T02:57:06.266Z,0.8
2022-12-10T02:58:05.818Z,0.8
2022-12-10T02:59:06.252Z,0.8
2022-12-10T03:00:05.957Z,0.8
2022-12-10T03:01:05.990Z,0
2022-12-10T03:02:05.558Z,0.8
2022-12-10T03:03:06.166Z,0.8
2022-12-10T03:04:06.062Z,0.8
2022-12-10T03:05:04.844Z,0.8
2022-12-10T03:06:05.837Z,0.8
2022-12-10T03:07:06.315Z,0.8
2022-12-10T03:08:05.179Z,0.8
2022-12-10T03:09:05.674Z,0.8
2022-12-10T03:10:05.757Z,0.8
2022-12-10T03:11:05.704Z,0.8
2022-12-10T03:12:05.493Z,0
2022-12-10T03:13:05.565Z,0.8
2022-12-10T03:14:06.033Z,0.8
2022-12-10T03:15:05.939Z,0.8
2022-12-10T03:16:06.122Z,0.8
2022-12-10T03:17:05.826Z,0.8
2022-12-10T03:18:05.639Z,0.8
2022-12-10T03:19:06.398Z,0.8
2022-12-10T03:20:05.956Z,0.8
2022-12-10T03:21:06.229Z,0.8
2022-12-10T03:22:05.586Z,0.8
2022-12-10T03:23:06.133Z,0.8
2022-12-10T03:24:05.513Z,0
2022-12-10T03:25:05.989Z,0.8
2022-12-10T03:26:06.392Z,0.8
2022-12-10T03:27:05.868Z,0.8
2022-12-10T03:28:05.804Z,0.8
2022-12-10T03:29:04.869Z,0.8
2022-12-10T03:30:06.016Z,0.8
2022-12-10T03:31:06.599Z,0.8
2022-12-10T03:32:05.950Z,0.8
2022-12-10T03:33:06.088Z,0.8
2022-12-10T03:34:05.550Z,0.8
2022-12-10T03:35:06.045Z,0
2022-12-10T03:36:05.462Z,0.8
2022-12-10T03:37:06.479Z,0.8
2022-12-10T03:38:04.836Z,0.8
2022-12-10T03:39:06.318Z,0.8
2022-12-10T03:40:05.809Z,0.8
2022-12-10T03:41:06.197Z,0.8
2022-12-10T03:42:05.950Z,0.8
2022-12-10T03:43:05.477Z,0.8
2022-12-10T03:44:05.912Z,0.8
2022-12-10T03:45:06.332Z,0.8
2022-12-10T03:46:06.535Z,0.8
2022-12-10T03:47:05.795Z,0
2022-12-10T03:48:06.154Z,0
2022-12-10T03:49:05.665Z,0.8
2022-12-10T03:50:06.200Z,0.8
2022-12-10T03:51:05.611Z,0.8
2022-12-10T03:52:05.883Z,0
2022-12-10T03:53:06.374Z,0.8
2022-12-10T03:54:05.587Z,0.8
2022-12-10T03:55:05.945Z,0.8
2022-12-10T03:56:06.407Z,0.8
2022-12-10T03:57:05.892Z,0.9
2022-12-10T03:58:06.264Z,0.8
2022-12-10T03:59:05.637Z,0.8
2022-12-10T04:00:04.842Z,0.8
2022-12-10T04:01:06.644Z,0
2022-12-10T04:02:05.592Z,0.8
2022-12-10T04:03:06.020Z,0.8
2022-12-10T04:04:06.156Z,0.8
2022-12-10T04:05:06.370Z,0.8
2022-12-10T04:06:06.256Z,0.8
2022-12-10T04:07:06.371Z,0.8
2022-12-10T04:08:06.151Z,0.8
2022-12-10T04:09:06.433Z,0.8
2022-12-10T04:10:05.757Z,0.8
2022-12-10T04:11:06.138Z,0
2022-12-10T04:12:06.065Z,0
2022-12-10T04:13:05.611Z,0.8
2022-12-10T04:14:05.842Z,0.8
2022-12-10T04:15:06.182Z,0.8
2022-12-10T04:16:05.787Z,0.9
2022-12-10T04:17:06.402Z,0.9
2022-12-10T04:18:05.619Z,0.8
2022-12-10T04:19:06.006Z,0.8
2022-12-10T04:20:06.164Z,0.8
2022-12-10T04:21:05.707Z,0.8
2022-12-10T04:22:06.096Z,0.8
2022-12-10T04:23:05.753Z,0.8
2022-12-10T04:24:05.632Z,0.8
2022-12-10T04:25:05.376Z,0.8
2022-12-10T04:26:05.744Z,0.8
2022-12-10T04:27:06.127Z,0
2022-12-10T04:28:05.714Z,0
2022-12-10T04:29:06.057Z,0
2022-12-10T04:30:06.019Z,0.8
2022-12-10T04:31:06.306Z,0.8
2022-12-10T04:32:05.613Z,0.8
2022-12-10T04:33:06.095Z,0.8
2022-12-10T04:34:05.540Z,0.8
2022-12-10T04:35:06.108Z,0.8
2022-12-10T04:36:06.406Z,0.8
2022-12-10T04:37:06.013Z,0.8
2022-12-10T04:38:06.384Z,0.8
2022-12-10T04:39:05.882Z,0.8
2022-12-10T04:40:06.512Z,0.8
2022-12-10T04:41:05.579Z,0.8
2022-12-10T04:42:06.032Z,0.8
2022-12-10T04:43:06.096Z,0.8
2022-12-10T04:44:05.431Z,0.8
2022-12-10T04:45:06.112Z,0.8
2022-12-10T04:46:06.084Z,0.8
2022-12-10T04:47:06.294Z,0.8
2022-12-10T04:48:05.591Z,0.8
2022-12-10T04:49:05.927Z,0.8
2022-12-10T04:50:06.056Z,0.8
2022-12-10T04:51:05.777Z,0.8
2022-12-10T04:52:05.917Z,0.8
2022-12-10T04:53:06.429Z,0.8
2022-12-10T04:54:05.652Z,0.8
2022-12-10T04:55:06.124Z,0.8
2022-12-10T04:56:05.642Z,0.8
2022-12-10T04:57:06.296Z,0.8
2022-12-10T04:58:06.213Z,0.8
2022-12-10T04:59:05.638Z,0.8
2022-12-10T05:00:06.276Z,0.8
2022-12-10T05:01:06.220Z,0.8
2022-12-10T05:02:05.802Z,0.8
2022-12-10T05:03:06.100Z,0.8
2022-12-10T05:04:06.134Z,0.8
2022-12-10T05:05:06.258Z,0.8
2022-12-10T05:06:05.568Z,0.8
2022-12-10T05:07:06.021Z,0.8
2022-12-10T05:08:06.132Z,0.8
2022-12-10T05:09:06.554Z,0.8
2022-12-10T05:10:06.160Z,0.8
2022-12-10T05:11:06.296Z,0
2022-12-10T05:12:05.909Z,0.8
2022-12-10T05:13:06.349Z,0.8
2022-12-10T05:14:05.693Z,0.8
2022-12-10T05:15:06.254Z,0.8
2022-12-10T05:16:06.457Z,0.8
2022-12-10T05:17:04.712Z,0.8
2022-12-10T05:18:05.885Z,0.8
2022-12-10T05:19:05.832Z,0.8
2022-12-10T05:20:06.308Z,0
2022-12-10T05:21:06.498Z,0
2022-12-10T05:22:05.922Z,0.8
2022-12-10T05:23:05.845Z,0.8
2022-12-10T05:24:06.344Z,0
2022-12-10T05:25:05.689Z,0
2022-12-10T05:26:06.232Z,0.8
2022-12-10T05:27:05.832Z,0.8
2022-12-10T05:28:06.325Z,0.8
2022-12-10T05:29:06.047Z,0.8
2022-12-10T05:30:05.878Z,0.8
2022-12-10T05:31:05.944Z,0.8
2022-12-10T05:32:05.898Z,0.8
2022-12-10T05:33:06.209Z,0.8
2022-12-10T05:34:05.510Z,0.8
2022-12-10T05:35:06.017Z,0.8
2022-12-10T05:36:05.541Z,0.8
2022-12-10T05:37:05.902Z,0.8
2022-12-10T05:38:06.553Z,0.8
2022-12-10T05:39:06.060Z,0.8
2022-12-10T05:40:05.925Z,0.8
2022-12-10T05:41:06.113Z,0.8
2022-12-10T05:42:05.612Z,0.8
2022-12-10T05:43:06.006Z,0.8
2022-12-10T05:44:05.723Z,0.8
2022-12-10T05:45:05.030Z,0
2022-12-10T05:46:05.468Z,0.8
2022-12-10T05:47:05.890Z,0.8
2022-12-10T05:48:06.452Z,0.8
2022-12-10T05:49:04.664Z,0.8
2022-12-10T05:50:06.380Z,0.8
2022-12-10T05:51:06.045Z,0.8
2022-12-10T05:52:05.593Z,0.8
2022-12-10T05:53:05.584Z,0.8
2022-12-10T05:54:06.627Z,0.8
2022-12-10T05:55:06.184Z,0.8
2022-12-10T05:56:05.450Z,0
2022-12-10T05:57:05.931Z,0.8
2022-12-10T05:58:06.295Z,0.8
2022-12-10T05:59:08.820Z,0.8
2022-12-10T06:00:06.156Z,0.8
2022-12-10T06:01:05.533Z,0.8
2022-12-10T06:02:05.961Z,0.8
2022-12-10T06:03:05.968Z,0.8
2022-12-10T06:04:06.108Z,0.8
2022-12-10T06:05:05.712Z,0.8
2022-12-10T06:06:05.916Z,0.8
2022-12-10T06:07:13.055Z,0.8
2022-12-10T06:08:06.197Z,0.8
2022-12-10T06:09:05.559Z,0.8
2022-12-10T06:10:06.414Z,0.8
2022-12-10T06:11:05.607Z,0.8
2022-12-10T06:12:06.014Z,0.8
2022-12-10T06:13:06.447Z,0
2022-12-10T06:14:05.818Z,0.8
2022-12-10T06:15:06.371Z,0.8
2022-12-10T06:16:05.927Z,0.8
2022-12-10T06:17:06.181Z,0.8
2022-12-10T06:18:04.933Z,0.8
2022-12-10T06:19:05.138Z,0
2022-12-10T06:20:06.310Z,0.8
2022-12-10T06:21:05.724Z,0.8
2022-12-10T06:22:06.324Z,0.8
2022-12-10T06:23:05.874Z,0.8
2022-12-10T06:24:05.752Z,0
2022-12-10T06:25:06.181Z,0.8
2022-12-10T06:26:05.602Z,0.8
2022-12-10T06:27:05.774Z,0.9
2022-12-10T06:28:06.263Z,0.8
2022-12-10T06:29:05.793Z,0
2022-12-10T06:30:05.834Z,0
2022-12-10T06:31:06.106Z,0.8
2022-12-10T06:32:05.493Z,0.8
2022-12-10T06:33:05.951Z,0
2022-12-10T06:34:05.563Z,0.8
2022-12-10T06:35:06.026Z,0.8
2022-12-10T06:36:06.549Z,0.8
2022-12-10T06:37:05.823Z,0.8
2022-12-10T06:38:06.222Z,0.8
2022-12-10T06:39:05.801Z,0.9
2022-12-10T06:40:05.889Z,0.9
2022-12-10T06:41:05.175Z,0.8
2022-12-10T06:42:05.785Z,0
2022-12-10T06:43:06.479Z,0.8
2022-12-10T06:44:06.258Z,0
2022-12-10T06:45:06.321Z,0.8
2022-12-10T06:46:06.449Z,0
2022-12-10T06:47:05.884Z,0.8
2022-12-10T06:48:06.044Z,0.8
2022-12-10T06:49:06.165Z,0.8
2022-12-10T06:50:06.246Z,0.8
2022-12-10T06:51:06.263Z,0.8
2022-12-10T06:52:06.079Z,0.8
2022-12-10T06:53:05.500Z,0.8
2022-12-10T06:54:06.308Z,0.8
2022-12-10T06:55:05.728Z,0
2022-12-10T06:56:05.857Z,0.8
2022-12-10T06:57:06.276Z,0.8
2022-12-10T06:58:05.949Z,0.8
2022-12-10T06:59:06.663Z,0
2022-12-10T07:00:06.314Z,0.8
2022-12-10T07:01:05.629Z,0.8
2022-12-10T07:02:06.711Z,0.8
2022-12-10T07:03:05.828Z,0
2022-12-10T07:04:05.176Z,0.8
2022-12-10T07:05:04.708Z,0.8
2022-12-10T07:06:06.399Z,0.8
2022-12-10T07:07:12.171Z,0.8
2022-12-10T07:08:05.974Z,0.8
2022-12-10T07:09:05.914Z,0.8
2022-12-10T07:10:04.654Z,0.8
2022-12-10T07:11:06.193Z,0.8
2022-12-10T07:12:05.654Z,0.8
2022-12-10T07:13:05.841Z,0.8
2022-12-10T07:14:05.910Z,0.8
2022-12-10T07:15:06.607Z,0.8
2022-12-10T07:16:06.046Z,0.8
2022-12-10T07:17:06.283Z,0.8
2022-12-10T07:18:06.049Z,0.8
2022-12-10T07:19:06.485Z,0.8
2022-12-10T07:20:05.941Z,0.8
2022-12-10T07:21:06.420Z,0.8
2022-12-10T07:22:06.080Z,0
2022-12-10T07:23:05.551Z,0.8
2022-12-10T07:24:06.065Z,0.8
2022-12-10T07:25:06.579Z,0.8
2022-12-10T07:26:05.930Z,0.9
2022-12-10T07:27:06.344Z,0.9
2022-12-10T07:28:05.797Z,0.8
2022-12-10T07:29:05.768Z,0.9
2022-12-10T07:30:06.230Z,0.9
2022-12-10T07:31:06.129Z,0.9
2022-12-10T07:32:06.212Z,0.9
2022-12-10T07:33:06.310Z,0.9
2022-12-10T07:34:05.756Z,0.9
2022-12-10T07:35:05.911Z,0.8
2022-12-10T07:36:04.869Z,0.8
2022-12-10T07:37:05.831Z,0.9
2022-12-10T07:38:06.154Z,0.9
2022-12-10T07:39:06.357Z,0.9
2022-12-10T07:40:06.396Z,0.9
2022-12-10T07:41:06.325Z,0
2022-12-10T07:42:05.597Z,0
2022-12-10T07:43:05.829Z,0.9
2022-12-10T07:44:05.564Z,0
2022-12-10T07:45:06.052Z,0.9
2022-12-10T07:46:05.594Z,0.9
2022-12-10T07:47:05.932Z,0.8
2022-12-10T07:48:06.360Z,0.9
2022-12-10T07:49:05.605Z,0.9
2022-12-10T07:50:06.107Z,0
2022-12-10T07:51:06.126Z,0.9
2022-12-10T07:52:05.589Z,0.9
2022-12-10T07:53:05.618Z,0.9
2022-12-10T07:54:06.123Z,0
2022-12-10T07:55:05.402Z,0.9
2022-12-10T07:56:06.240Z,0.9
2022-12-10T07:57:05.063Z,0.9
2022-12-10T07:58:04.485Z,0
2022-12-10T07:59:06.010Z,0.9
2022-12-10T08:00:05.628Z,0.9
2022-12-10T08:01:06.408Z,0
2022-12-10T08:02:12.586Z,1
2022-12-10T08:03:06.205Z,1
2022-12-10T08:04:06.034Z,0.9
2022-12-10T08:05:05.611Z,0.9
2022-12-10T08:06:06.077Z,0
2022-12-10T08:07:06.482Z,0
2022-12-10T08:08:11.995Z,0
2022-12-10T08:09:06.251Z,0
2022-12-10T08:10:05.540Z,1
2022-12-10T08:11:05.638Z,1
2022-12-10T08:12:06.059Z,1
2022-12-10T08:13:05.923Z,1
2022-12-10T08:14:06.293Z,1
2022-12-10T08:15:06.502Z,1.1
2022-12-10T08:16:05.809Z,1.1
2022-12-10T08:17:06.284Z,1.1
2022-12-10T08:18:05.772Z,1.1
2022-12-10T08:19:06.235Z,1.1
2022-12-10T08:20:05.742Z,1.2
2022-12-10T08:21:06.075Z,1.1
2022-12-10T08:22:05.505Z,1.1
2022-12-10T08:23:06.233Z,1.2
2022-12-10T08:24:04.839Z,1.1
2022-12-10T08:25:06.006Z,1.1
2022-12-10T08:26:06.395Z,1.2
2022-12-10T08:27:06.059Z,1.2
2022-12-10T08:28:05.589Z,1.2
2022-12-10T08:29:05.814Z,1
2022-12-10T08:30:06.322Z,1.2
2022-12-10T08:31:05.981Z,1.2
2022-12-10T08:32:06.629Z,1
2022-12-10T08:33:05.837Z,1
2022-12-10T08:34:06.444Z,1.2
2022-12-10T08:35:06.275Z,1.2
2022-12-10T08:36:05.661Z,1.2
2022-12-10T08:37:12.741Z,1.2
2022-12-10T08:38:05.683Z,1.2
2022-12-10T08:39:06.105Z,1.2
2022-12-10T08:40:05.692Z,1.2
2022-12-10T08:41:05.804Z,1.2
2022-12-10T08:42:06.320Z,1.2
2022-12-10T08:43:05.667Z,1.2
2022-12-10T08:44:05.240Z,1.3
2022-12-10T08:45:05.772Z,1.2
2022-12-10T08:46:06.436Z,1.2
2022-12-10T08:47:06.094Z,1.2
2022-12-10T08:48:04.720Z,1.2
2022-12-10T08:49:05.906Z,1.2
2022-12-10T08:50:06.501Z,1.2
2022-12-10T08:51:05.565Z,1.2
2022-12-10T08:52:06.052Z,1
2022-12-10T08:53:05.660Z,1
2022-12-10T08:54:06.592Z,1.3
2022-12-10T08:55:05.873Z,1.3
2022-12-10T08:56:06.053Z,1.3
2022-12-10T08:57:06.567Z,1.3
2022-12-10T08:58:06.037Z,1.3
2022-12-10T08:59:05.480Z,1.3
2022-12-10T09:00:06.447Z,1.3
2022-12-10T09:01:06.139Z,1.3
2022-12-10T09:02:06.074Z,1.3
2022-12-10T09:03:06.279Z,1.3
2022-12-10T09:04:05.782Z,1.4
2022-12-10T09:05:06.244Z,1.3
2022-12-10T09:06:05.730Z,1.4
2022-12-10T09:07:08.345Z,1.4
2022-12-10T09:08:05.836Z,1.4
2022-12-10T09:09:06.300Z,1
2022-12-10T09:10:05.922Z,1.4
2022-12-10T09:11:06.390Z,1.5
2022-12-10T09:12:06.112Z,1.4
2022-12-10T09:13:07.639Z,1.4
2022-12-10T09:14:04.527Z,1.4
2022-12-10T09:15:04.771Z,1.5
2022-12-10T09:16:06.757Z,1.5
2022-12-10T09:17:06.511Z,1.5
2022-12-10T09:18:05.894Z,1.5
2022-12-10T09:19:06.317Z,1.5
2022-12-10T09:20:06.488Z,1.6
2022-12-10T09:21:05.771Z,1.6
2022-12-10T09:22:06.164Z,1.6
2022-12-10T09:23:05.714Z,1.6
2022-12-10T09:24:05.607Z,1.6
2022-12-10T09:25:06.015Z,1.6
2022-12-10T09:26:06.817Z,1.6
2022-12-10T09:27:06.369Z,1.7
2022-12-10T09:28:05.873Z,1.7
2022-12-10T09:29:06.440Z,1.7
2022-12-10T09:30:05.584Z,1.7
2022-12-10T09:31:12.763Z,1.7
2022-12-10T09:32:05.934Z,1.7
2022-12-10T09:33:06.056Z,1.8
2022-12-10T09:34:06.448Z,1.7
2022-12-10T09:35:06.009Z,1.8
2022-12-10T09:36:06.454Z,1.8
2022-12-10T09:37:05.721Z,1.8
2022-12-10T09:38:04.886Z,1.8
2022-12-10T09:39:05.782Z,1.8
2022-12-10T09:40:06.053Z,1.8
2022-12-10T09:41:05.877Z,1.9
2022-12-10T09:42:06.514Z,1.8
2022-12-10T09:43:06.407Z,1.9
2022-12-10T09:44:05.801Z,1.9
2022-12-10T09:45:06.244Z,1.9
2022-12-10T09:46:06.686Z,1.9
2022-12-10T09:47:05.699Z,1.9
2022-12-10T09:48:06.201Z,1.9
2022-12-10T09:49:05.679Z,1.9
2022-12-10T09:50:10.144Z,1.9
2022-12-10T09:51:05.461Z,1.9
2022-12-10T09:52:06.005Z,2
2022-12-10T09:53:06.491Z,2
2022-12-10T09:54:05.757Z,2
2022-12-10T09:55:06.265Z,2
2022-12-10T09:56:05.720Z,2
2022-12-10T09:57:06.028Z,1.9
2022-12-10T09:58:06.400Z,2
2022-12-10T09:59:05.881Z,1.9
2022-12-10T10:00:05.554Z,2
2022-12-10T10:01:06.631Z,2
2022-12-10T10:02:06.114Z,2
2022-12-10T10:03:06.393Z,1
2022-12-10T10:04:05.879Z,2
2022-12-10T10:05:06.188Z,2
2022-12-10T10:07:06.303Z,1
2022-12-10T10:08:05.879Z,2
2022-12-10T10:09:06.034Z,2
2022-12-10T10:10:06.400Z,1
2022-12-10T10:11:06.044Z,2
2022-12-10T10:12:13.016Z,1
2022-12-10T10:13:05.737Z,1
2022-12-10T10:14:05.663Z,2
2022-12-10T10:15:06.110Z,2
2022-12-10T10:16:05.976Z,2
2022-12-10T10:17:06.659Z,2
2022-12-10T10:18:05.741Z,2
2022-12-10T10:19:06.305Z,2
2022-12-10T10:20:05.762Z,2
2022-12-10T10:21:06.085Z,2
2022-12-10T10:22:05.590Z,2
2022-12-10T10:23:06.078Z,2
2022-12-10T10:24:12.087Z,2
2022-12-10T10:25:06.130Z,2
2022-12-10T10:26:06.458Z,2
2022-12-10T10:27:05.943Z,2
2022-12-10T10:28:06.382Z,2
2022-12-10T10:29:05.857Z,2
2022-12-10T10:30:06.285Z,2
2022-12-10T10:31:06.227Z,2
2022-12-10T10:32:06.010Z,2
2022-12-10T10:33:06.313Z,2
2022-12-10T10:34:05.845Z,2
2022-12-10T10:35:06.015Z,2
2022-12-10T10:36:11.368Z,1.9
2022-12-10T10:37:05.990Z,1.9
2022-12-10T10:38:06.431Z,2
2022-12-10T10:39:06.463Z,2
2022-12-10T10:40:06.128Z,2
2022-12-10T10:41:05.646Z,2
2022-12-10T10:42:06.205Z,2
2022-12-10T10:43:05.622Z,2
2022-12-10T10:44:06.175Z,1.9
2022-12-10T10:45:05.649Z,1.9
2022-12-10T10:46:06.678Z,1.9
2022-12-10T10:47:05.935Z,2
2022-12-10T10:48:06.371Z,2
2022-12-10T10:49:05.859Z,1.9
2022-12-10T10:50:06.409Z,1.9
2022-12-10T10:51:05.847Z,1
2022-12-10T10:52:05.470Z,1.9
2022-12-10T10:53:05.962Z,1
2022-12-10T10:54:10.528Z,1.9
2022-12-10T10:55:06.446Z,1.9
2022-12-10T10:56:06.542Z,1.9
2022-12-10T10:57:06.152Z,1.9
2022-12-10T10:58:06.038Z,1.9
2022-12-10T10:59:05.704Z,1
2022-12-10T11:00:14.076Z,1.9
2022-12-10T11:01:05.904Z,1.9
2022-12-10T11:02:06.180Z,1.9
2022-12-10T11:03:06.200Z,1.9
2022-12-10T11:04:05.633Z,1.9
2022-12-10T11:05:06.093Z,1.9
2022-12-10T11:06:04.613Z,2
2022-12-10T11:07:05.764Z,2
2022-12-10T11:08:06.199Z,2
2022-12-10T11:09:06.549Z,2
2022-12-10T11:10:06.220Z,2
2022-12-10T11:11:06.454Z,2
2022-12-10T11:12:05.714Z,2
2022-12-10T11:13:06.228Z,2
2022-12-10T11:14:05.695Z,2
2022-12-10T11:15:06.114Z,2
2022-12-10T11:16:05.539Z,2
2022-12-10T11:17:06.008Z,2
2022-12-10T11:18:05.982Z,2
2022-12-10T11:19:05.952Z,1
2022-12-10T11:20:06.568Z,2
2022-12-10T11:21:05.738Z,2
2022-12-10T11:22:05.761Z,2
2022-12-10T11:23:05.576Z,2
2022-12-10T11:24:06.090Z,2
2022-12-10T11:25:05.503Z,2
2022-12-10T11:26:05.580Z,1
2022-12-10T11:27:06.137Z,1
2022-12-10T11:28:05.553Z,1
2022-12-10T11:29:06.076Z,2
2022-12-10T11:30:06.302Z,2
2022-12-10T11:31:06.618Z,2
2022-12-10T11:32:07.756Z,2
2022-12-10T11:33:06.363Z,2
2022-12-10T11:34:06.430Z,2
2022-12-10T11:35:05.929Z,2
2022-12-10T11:36:06.525Z,2
2022-12-10T11:37:05.863Z,2
2022-12-10T11:38:06.403Z,2
2022-12-10T11:39:05.957Z,2
2022-12-10T11:40:05.697Z,2
2022-12-10T11:41:06.238Z,2
2022-12-10T11:42:05.865Z,2
2022-12-10T11:43:06.311Z,2
2022-12-10T11:44:05.744Z,2
2022-12-10T11:45:05.806Z,2
2022-12-10T11:46:05.718Z,2
2022-12-10T11:47:06.515Z,2
2022-12-10T11:48:06.109Z,2
2022-12-10T11:49:06.179Z,2
2022-12-10T11:50:06.167Z,2
2022-12-10T11:51:04.650Z,2
2022-12-10T11:52:06.216Z,2
2022-12-10T11:53:06.112Z,2
2022-12-10T11:54:05.595Z,2
2022-12-10T11:55:17.393Z,2
2022-12-10T11:56:06.091Z,2
2022-12-10T11:57:06.214Z,2
2022-12-10T11:58:05.773Z,2
2022-12-10T11:59:05.828Z,2
2022-12-10T12:00:09.659Z,2
2022-12-10T12:01:10.974Z,2
2022-12-10T12:02:05.584Z,2
2022-12-10T12:03:06.205Z,2
2022-12-10T12:04:05.792Z,2.1
2022-12-10T12:05:06.156Z,2.1
2022-12-10T12:06:12.024Z,2
2022-12-10T12:07:06.149Z,2
2022-12-10T12:08:05.758Z,2
2022-12-10T12:09:06.090Z,2.1
2022-12-10T12:10:05.455Z,2
2022-12-10T12:11:05.760Z,2
2022-12-10T12:12:06.097Z,2.1
2022-12-10T12:13:05.483Z,2
2022-12-10T12:14:06.105Z,2.1
2022-12-10T12:15:05.557Z,2.1
2022-12-10T12:16:06.427Z,2.1
2022-12-10T12:17:05.989Z,2.1
2022-12-10T12:18:05.383Z,2.2
2022-12-10T12:19:06.159Z,2.1
2022-12-10T12:20:05.502Z,2.1
2022-12-10T12:21:05.981Z,2.1
2022-12-10T12:22:06.143Z,2.1
2022-12-10T12:23:05.963Z,2.1
2022-12-10T12:24:09.240Z,2.1
2022-12-10T12:25:06.459Z,2.1
2022-12-10T12:26:05.943Z,2.1
2022-12-10T12:27:05.523Z,2.1
2022-12-10T12:28:06.017Z,2.1
2022-12-10T12:29:06.215Z,2.1
2022-12-10T12:30:05.700Z,2.1
2022-12-10T12:31:06.757Z,2.1
2022-12-10T12:32:05.928Z,2.1
2022-12-10T12:33:06.443Z,2.1
2022-12-10T12:34:05.837Z,2
2022-12-10T12:35:06.320Z,2.1
2022-12-10T12:36:05.709Z,2.1
2022-12-10T12:37:06.211Z,2.1
2022-12-10T12:38:05.651Z,2.1
2022-12-10T12:39:06.214Z,2.1
2022-12-10T12:40:05.681Z,2
2022-12-10T12:41:06.297Z,2.1
2022-12-10T12:42:07.893Z,2.1
2022-12-10T12:43:05.785Z,2.1
2022-12-10T12:44:05.321Z,2.1
2022-12-10T12:45:05.917Z,2.1
2022-12-10T12:46:06.202Z,2.1
2022-12-10T12:47:06.498Z,2.2
2022-12-10T12:48:05.993Z,2.2
2022-12-10T12:49:06.078Z,2.2
2022-12-10T12:50:06.032Z,2.1
2022-12-10T12:51:06.400Z,2.2
2022-12-10T12:52:06.233Z,2.2
2022-12-10T12:53:06.056Z,2.2
2022-12-10T12:54:05.012Z,2.2
2022-12-10T12:55:05.748Z,2.2
2022-12-10T12:56:05.795Z,2
2022-12-10T12:57:06.304Z,2.2
2022-12-10T12:58:06.015Z,2.2
2022-12-10T12:59:06.512Z,2.1
2022-12-10T13:00:05.863Z,2.1
2022-12-10T13:01:06.160Z,2.1
2022-12-10T13:02:06.324Z,2.1
2022-12-10T13:03:06.771Z,2.1
2022-12-10T13:04:05.797Z,2.1
2022-12-10T13:05:06.288Z,2
2022-12-10T13:06:05.933Z,2.1
2022-12-10T13:07:06.334Z,2.1
2022-12-10T13:08:05.933Z,2.1
2022-12-10T13:09:06.244Z,2.1
2022-12-10T13:10:05.905Z,2.1
2022-12-10T13:11:06.167Z,2.1
2022-12-10T13:12:05.768Z,2.1
2022-12-10T13:13:06.197Z,2.1
2022-12-10T13:14:05.571Z,2.1
2022-12-10T13:15:06.039Z,2.1
2022-12-10T13:16:05.995Z,2.1
2022-12-10T13:17:05.658Z,2.1
2022-12-10T13:18:06.556Z,2.1
2022-12-10T13:19:05.430Z,2.1
2022-12-10T13:20:05.850Z,2.1
2022-12-10T13:21:05.075Z,2
2022-12-10T13:22:05.663Z,1
2022-12-10T13:23:05.585Z,1
2022-12-10T13:24:04.425Z,2.1
2022-12-10T13:25:06.077Z,1
2022-12-10T13:26:06.481Z,2.1
2022-12-10T13:27:06.270Z,2.1
2022-12-10T13:28:05.704Z,2
2022-12-10T13:29:11.706Z,2
2022-12-10T13:30:06.312Z,2
2022-12-10T13:31:06.046Z,2
2022-12-10T13:32:06.415Z,2
2022-12-10T13:33:05.492Z,2
2022-12-10T13:34:06.090Z,2
2022-12-10T13:35:05.512Z,2
2022-12-10T13:36:13.342Z,2
2022-12-10T13:37:06.509Z,2
2022-12-10T13:38:05.892Z,2
2022-12-10T13:39:06.358Z,2
2022-12-10T13:40:05.862Z,2
2022-12-10T13:41:06.188Z,2
2022-12-10T13:42:05.771Z,2
2022-12-10T13:43:06.125Z,1.9
2022-12-10T13:44:05.735Z,2
2022-12-10T13:45:06.227Z,1.9
2022-12-10T13:46:06.620Z,1
2022-12-10T13:47:05.926Z,1
2022-12-10T13:48:12.012Z,2
2022-12-10T13:49:05.838Z,2
2022-12-10T13:50:05.192Z,2
2022-12-10T13:51:06.402Z,2
2022-12-10T13:52:05.984Z,2
2022-12-10T13:53:05.899Z,2
2022-12-10T13:54:05.476Z,2
2022-12-10T13:55:13.592Z,2
2022-12-10T13:56:06.137Z,2
2022-12-10T13:57:05.563Z,2
2022-12-10T13:58:05.919Z,2
2022-12-10T13:59:06.459Z,2
2022-12-10T14:00:12.827Z,2
2022-12-10T14:01:06.132Z,2
2022-12-10T14:02:05.784Z,2
2022-12-10T14:03:06.125Z,2